Central Sierra Snow Lab Weather observations

Data are for 10 minute period ending at time listed.
 Day   Time    Incoming  Reflected   Ave.   Ave.    Ave.    Vector  Max.    Ave.    Total    Snow   
  of    of      Solar     Solar      Air    Rel.    Wind    Wind    Wind   Baro.   Precip.   Depth  
Year   Day     Radiation Radiation   Temp.  Humid.  Speed   Dir.    Gust   Press.                   
2020   (PST)    Kw/m2     Kw/m2       F       %      mph     deg.    mph     mb.     in.      in.   
----------------------------------------------------------------------------------------------------
 150    3:50    0.000     999.000     43.6     59     2.6      41     4.6   794.80   -2.96   164.90  
 150    4:00    0.000     999.000     43.7     60     2.2      41     3.9   794.70   -2.96   164.80  
 150    4:10    0.000     999.000     43.6     61     2.4      37     4.7   794.80   -2.96   164.90  
 150    4:20    0.000     999.000     43.6     60     2.3      46     4.1   794.80   -2.96   164.90  
 150    4:30    0.000     999.000     43.6     58     2.4      39     4.3   794.80   -2.96   164.90  
 150    4:40    0.001     999.000     43.7     60     2.3      34     4.9   794.80   -2.96   164.80  
 150    4:50    0.003     999.000     43.7     60     2.2      39     4.4   794.80   -2.96   164.90  
 150    5:00    0.005     999.000     43.6     60     2.7      35     5.0   794.80   -2.96   164.90  
 150    5:10    0.008     999.000     43.7     59     3.0      34     5.8   794.70   -2.96   164.90  
 150    5:20    0.009     999.000     44.6     54     4.1      31     6.2   794.80   -2.96   164.80  
 150    5:30    0.010     999.000     44.4     56     2.9      35     4.3   794.80   -2.96   164.80  
 150    5:40    0.012     999.000     44.7     57     2.5      38     4.6   794.80   -2.96   164.80  
 150    5:50    0.014     999.000     45.1     57     3.1      32     5.5   794.80   -2.96   164.80  
 150    6:00    0.017     999.000     45.6     60     3.0      32     5.0   794.70   -2.96   164.80  
 150    6:10    0.019     999.000     45.9     61     1.7      45     3.2   794.70   -2.96   164.80  
 150    6:20    0.030     999.000     47.1     58     1.7      44     2.3   794.70   -2.96   164.80  
 150    6:30    0.176     999.000     48.1     58     1.7      35     2.8   794.60   -2.96   164.80  
 150    6:40    0.295     999.000     49.5     56     1.3      37     2.7   794.50   -2.96   164.80  
 150    6:50    0.330     999.000     52.3     52     1.6      42     2.7   794.50   -2.96   164.80  
 150    7:00    0.353     999.000     55.4     48     1.5      48     3.1   794.50   -2.96   164.70  
 150    7:10    0.378     999.000     57.3     47     1.5      43     2.7   794.50   -2.96   164.70  
 150    7:20    0.426     999.000     59.3     43     0.7      60     2.4   794.40   -2.96   164.60  
 150    7:30    0.458     999.000     61.1     38     1.4      48     3.6   794.40   -2.96   164.60  
 150    7:40    0.489     999.000     62.5     35     0.9      37     3.6   794.30   -2.96   164.50  
 150    7:50    0.520     999.000     63.8     33     0.5     105     2.4   794.30   -2.96   147.30  
 150    8:00    0.555     999.000     66.2     31     0.2      37     1.9   794.20   -2.96   -4.60  
 150    8:10    0.573     999.000     69.6     25     0.5      76     2.1   794.10   -2.96   -4.60  
 150    8:20    0.605     999.000     70.7     24     0.9      75     4.4   794.10   -2.96   -4.90  
 150    8:30    0.644     999.000     71.8     19     1.9      48     5.0   794.10   -2.96   -4.50  
 150    8:40    0.534     999.000     71.4     21     2.1      35     4.2   794.00   -2.96   -4.50  
 150    8:50    0.667     999.000     71.2     19     3.2      69     7.2   794.00   -2.96   -4.10  
 150    9:00    0.723     999.000     71.7     20     3.0      63     6.2   793.80   -2.96   -4.30  
 150    9:10    0.757     999.000     72.8     20     2.8      59     6.3   793.70   -2.96   -4.30  
 150    9:20    0.620     999.000     73.5     19     2.0      34     7.2   793.60   -2.96   -4.40  
 150    9:30    0.360     999.000     72.6     18     3.1      44     7.1   793.50   -2.96   -4.20  
 150    9:40    0.657     999.000     72.2     19     2.7      33     6.3   793.50   -2.96   -3.90  
 150    9:50    0.610     999.000     73.3     20     2.1      81     7.4   793.40   -2.96   -4.20  
 150   10:00    0.475     999.000     73.7     20     2.0      45     5.7   793.40   -2.96   -4.30  
 150   10:10    0.353     999.000     73.6     21     1.3     156     8.0   793.30   -2.96   -4.30  
 150   10:20    0.420     999.000     73.2     21     1.4      51     4.0   793.30   -2.96   -4.10  
 150   10:30    0.403     999.000     73.4     22     1.1     244     4.6   793.30   -2.96   -4.20  
 150   10:40    0.510     999.000     73.5     24     1.2      66     3.6   793.20   -2.96   -4.10  
 150   10:50    0.428     999.000     74.3     22     1.0      76     3.7   793.10   -2.96   -4.10  
 150   11:00    0.281     999.000     73.4     23     1.6     220     5.7   793.10   -2.96   -4.10  
 150   11:10    0.398     999.000     73.0     24     1.0     196     3.2   793.10   -2.96   -4.00  
 150   11:20    0.370     999.000     73.9     23     1.1     216     3.0   793.10   -2.96   -4.10  
 150   11:30    0.310     999.000     73.5     22     1.3     208     4.0   793.10   -2.96   -4.10  
 150   11:40    0.350     999.000     73.5     21     2.3     141     5.5   793.00   -2.96   -4.00  
 150   11:50    0.444     999.000     73.7     20     2.5     117     7.0   793.00   -2.96   -4.00  
 150   12:00    0.618     999.000     74.7     18     2.7     187     7.5   792.90   -2.96   -3.90  
 150   12:10    0.424     999.000     75.6     18     1.4     220     4.2   792.90   -2.96   -4.10  
 150   12:20    0.486     999.000     75.2     17     2.7     184     6.6   792.90   -2.96   -4.00  
 150   12:30    0.519     999.000     75.7     17     2.3     168     6.3   792.70   -2.96   -4.00  
 150   12:40    0.272     999.000     75.2     18     1.8     122     4.7   792.70   -2.96   -4.20  
 150   12:50    0.317     999.000     75.0     20     1.0     176     2.9   792.60   -2.96   -4.10  
 150   13:00    0.352     999.000     74.7     20     1.5     224     4.2   792.60   -2.96   -4.00  
 150   13:10    0.837     999.000     75.4     22     2.5     211     8.4   792.60   -2.96   -3.90  
 150   13:20    0.826     999.000     76.1     20     2.3     219     5.2   792.60   -2.96   -4.10  
 150   13:30    0.924     999.000     76.4     21     2.7     200     6.9   792.60   -2.96   -4.10  
 150   13:40    0.777     999.000     76.5     22     2.5     215     8.8   792.50   -2.96   -4.10  
 150   13:50    0.398     999.000     76.7     21     1.7     208     4.1   792.40   -2.96   -4.10  
 150   14:00    0.328     999.000     75.2     21     1.8     201     6.4   792.40   -2.96   -3.90  
 150   14:10    0.555     999.000     75.4     21     2.0     208     4.3   792.30   -2.96   -3.80  
 150   14:20    0.304     999.000     75.1     21     2.6     263     6.2   792.20   -2.96   -4.10  
 150   14:30    0.300     999.000     74.3     23     2.5     233     6.4   792.10   -2.96   -3.90  
 150   14:40    0.379     999.000     74.7     23     2.3     206     5.4   792.10   -2.96   -3.80  
 150   14:50    0.309     999.000     74.8     24     2.4     203     4.8   792.00   -2.96   -3.90  
 150   15:00    0.298     999.000     74.2     25     2.2     207     5.7   792.00   -2.96   -3.90  
 150   15:10    0.433     999.000     74.1     24     2.9     207     6.9   791.90   -2.96    0.80  
 150   15:20    0.406     999.000     74.6     25     2.4     223     5.4   791.90   -2.96   -3.80  
 150   15:30    0.380     999.000     74.6     25     2.6     220     6.7   791.90   -2.96   -3.90  
 150   15:40    0.181     999.000     73.1     28     2.3     224     6.2   791.80   -2.96   -4.00  
 150   15:50    0.221     999.000     72.1     29     1.8     221     4.8   791.80   -2.96    0.60  
 150   16:00    0.391     999.000     72.2     31     3.0     208     6.8   791.90   -2.96   142.10  
 150   16:10    0.290     999.000     72.0     33     3.4     205    10.0   791.90   -2.96   163.40  
 150   16:20    0.255     999.000     71.2     32     2.5     227     5.7   791.80   -2.96   111.70  
 150   16:30    0.284     999.000     71.5     32     1.7     237     4.4   791.70   -2.96   107.10  
 150   16:40    0.246     999.000     71.4     32     2.4     209     6.1   791.60   -2.96   139.10  
 150   16:50    0.197     999.000     70.6     34     1.9     227     6.0   791.60   -2.96   155.80  
 150   17:00    0.245     999.000     70.1     34     2.0     228     6.2   791.70   -2.96   162.20  
 150   17:10    0.218     999.000     70.3     32     2.3     242     8.4   791.70   -2.96   163.70  
 150   17:20    0.076     999.000     69.5     33     1.5     195     4.1   791.50   -2.96   163.60  
 150   17:30    0.078     999.000     68.8     34     1.2     243     3.8   791.40   -2.96   164.00  
 150   17:40    0.022     999.000     67.8     36     1.8     222     4.0   791.70   -2.96   164.10  
 150   17:50    0.005     999.000     66.8     39     0.5     167     1.6   791.90   -2.96   72.30  
 150   18:00    0.001     999.000     65.5     46     1.4     136     4.3   792.50   -2.96   150.30  
 150   18:10    0.002     999.000     63.0     54     2.2      26     5.7   793.20   -2.96   77.70  
 150   18:20    0.027     999.000     59.7     67     3.0      29     5.4   792.80   -2.96   164.30  
 150   18:30    0.025     999.000     57.9     74     2.3      24     5.6   792.30   -2.96   66.40  
 150   18:40    0.024     999.000     57.7     72     1.9      37     3.7   792.10   -2.96   -4.10  
 150   18:50    0.019     999.000     57.5     71     1.7      20     3.5   791.90   -2.96   -4.30  
 150   19:00    0.008     999.000     57.2     72     0.6     310     2.3   791.70   -2.96   -4.50  
 150   19:10    0.004     999.000     57.5     69     2.0      82     3.3   791.70   -2.96   -4.50  
 150   19:20    0.001     999.000     57.0     70     0.8      17     2.9   791.60   -2.96    4.80  
 150   19:30    0.000     999.000     56.7     67     1.0      29     2.7   791.60   -2.96   164.40  
 150   19:40    0.000     999.000     56.5     67     1.5      17     2.7   791.80   -2.96   164.50  
 150   19:50    0.000     999.000     56.3     71     1.6      23     2.9   791.60   -2.96   69.10  
 150   20:00    0.000     999.000     56.2     70     1.7      36     3.4   791.60   -2.96   33.80  
 150   20:10    0.000     999.000     56.4     69     1.2      33     4.6   792.10   -2.96   86.00  
 150   20:20    0.000     999.000     56.4     68     1.4       4     4.0   792.60   -2.96   86.00  
 150   20:30    0.000     999.000     56.9     62     2.5     339     4.9   792.60   -2.96   164.50  
 150   20:40    0.000     999.000     55.8     68     2.4      38     4.3   791.60   -2.96   115.20  
 150   20:50    0.000     999.000     54.7     72     2.9      34     5.0   791.00   -2.96   -4.50  
 150   21:00    0.000     999.000     54.5     70     1.9      30     3.6   790.90   -2.96   -4.50  
 150   21:10    0.000     999.000     54.2     71     0.8      16     2.8   790.70   -2.96   -4.50  
 150   21:20    0.000     999.000     53.9     73     2.4      24     3.4   790.70   -2.96   -1.50  
 150   21:30    0.000     999.000     53.7     73     2.3      22     5.4   790.80   -2.96   -4.60  
 150   21:40    0.000     999.000     53.7     72     1.1      25     3.1   790.80   -2.96   -4.60  
 150   21:50    0.000     999.000     53.4     72     2.8      22     5.2   790.70   -2.96    0.00  
 150   22:00    0.000     999.000     53.2     72     2.5      27     5.2   790.50   -2.96   10.80  
 150   22:10    0.000     999.000     53.0     73     1.1      25     3.3   790.50   -2.96   -4.60  
 150   22:20    0.000     999.000     52.4     74     2.0      33     3.2   790.40   -2.96   -4.50  
 150   22:30    0.000     999.000     52.0     73     2.3      23     4.1   790.30   -2.96    0.30  
 150   22:40    0.000     999.000     51.7     74     2.3      33     4.1   790.10   -2.96   -4.30  
 150   22:50    0.000     999.000     51.3     75     0.5      29     2.9   790.10   -2.96   -4.20  
 150   23:00    0.000     999.000     50.9     76     1.8      31     3.7   790.00   -2.96   -4.30  
 150   23:10    0.000     999.000     50.5     75     1.5      36     2.9   790.10   -2.96   -4.20  
 150   23:20    0.000     999.000     50.1     76     0.8      25     2.2   790.30   -2.96   -4.20  
 150   23:30    0.000     999.000     50.5     76     0.9      95     2.6   790.30   -2.96   -4.10  
 150   23:40    0.000     999.000     50.7     78     0.4      96     2.0   790.40   -2.96   -4.30  
 150   23:50    0.000     999.000     51.1     81     0.2     129     1.8   790.30   -2.96   -4.60  
 151    0:00    0.000     999.000     51.5     83     0.3     272     2.4   790.20   -2.96   -5.00  
 151    0:10    0.000     999.000     51.5     82     0.1     152     1.1   790.20   -2.96   -4.80  
 151    0:20    0.000     999.000     51.9     84     0.3     152     1.5   790.00   -2.96   -5.10  
 151    0:30    0.000     999.000     52.2     84     0.6      86     1.6   789.80   -2.96   -5.00  
 151    0:40    0.000     999.000     52.6     84     0.5      49     2.0   789.60   -2.96   -5.10  
 151    0:50    0.000     999.000     52.9     84     0.1       3     1.6   789.40   -2.96   -5.10  
 151    1:00    0.000     999.000     52.8     84     0.0       0     0.0   789.30   -2.96   -5.40  
 151    1:10    0.000     999.000     52.3     85     0.1      11     1.8   789.20   -2.96   -5.50  
 151    1:20    0.000     999.000     51.8     86     0.9      40     2.9   789.10   -2.96   -5.60  
 151    1:30    0.000     999.000     51.4     87     0.8      22     2.5   789.00   -2.96   -5.50  
 151    1:40    0.000     999.000     51.0     87     1.3      29     2.4   788.80   -2.96   -5.70  
 151    1:50    0.000     999.000     50.6     88     1.5      27     2.8   788.80   -2.96   -5.70  
 151    2:00    0.000     999.000     50.4     88     0.6      24     2.2   788.70   -2.96   -5.60  
 151    2:10    0.000     999.000     50.3     89     0.9      25     2.9   788.50   -2.96   -5.60  
 151    2:20    0.000     999.000     50.5     90     0.1     271     1.3   788.30   -2.96   -5.50  
 151    2:30    0.000     999.000     51.2     91     1.3     251     4.1   788.30   -2.96   -3.90  
 151    2:40    0.000     999.000     51.5     91     1.2     211     3.6   788.30   -2.96   -5.40  
 151    2:50    0.000     999.000     51.8     92     1.7     214     4.4   788.30   -2.96   -5.40  
 151    3:00    0.000     999.000     51.9     94     2.1     213     4.8   788.30   -2.96   -5.50  
 151    3:10    0.000     999.000     51.7     94     2.5     250     6.9   788.20   -2.96   -5.50  
 151    3:20    0.000     999.000     51.4     94     1.6     241     5.4   788.00   -2.96   -5.50  
 151    3:30    0.000     999.000     51.1     94     1.9     223     6.8   788.00   -2.96   -5.40  
 151    3:40    0.000     999.000     50.8     95     1.5     209     4.1   788.10   -2.96   -5.30  

Return to Central Sierra Snow Lab graphs page.


Western Regional Climate Center,wrcc@dri.edu